<?xml version="1.0" encoding="UTF-8" standalone="no" ?><gpx xmlns="http://www.topografix.com/GPX/1/1" xmlns:gpxx="http://www.garmin.com/xmlschemas/GpxExtensions/v3" xmlns:wptx1="http://www.garmin.com/xmlschemas/WaypointExtension/v1" xmlns:gpxtpx="http://www.garmin.com/xmlschemas/TrackPointExtension/v1" creator="GuideVTT.com" version="1.1" xmlns:xsi="http://www.w3.org/2001/XMLSchema-instance" xsi:schemaLocation="http://www.topografix.com/GPX/1/1 http://www.topografix.com/GPX/1/1/gpx.xsd http://www.garmin.com/xmlschemas/GpxExtensions/v3 http://www8.garmin.com/xmlschemas/GpxExtensionsv3.xsd http://www.garmin.com/xmlschemas/WaypointExtension/v1 http://www8.garmin.com/xmlschemas/WaypointExtensionv1.xsd http://www.garmin.com/xmlschemas/TrackPointExtension/v1 http://www.garmin.com/xmlschemas/TrackPointExtensionv1.xsd">
<metadata><link href="http://www.garmin.com"><text>Garmin International</text></link><time>2013-06-22T15:13:50Z</time></metadata>
<trk><name>s34xv224b_survolbarillette4.gpx</name><extensions><gpxx:TrackExtension><gpxx:DisplayColor>Cyan</gpxx:DisplayColor></gpxx:TrackExtension></extensions><trkseg>
<trkpt lat="46.40091511532655" lon="6.17350888677775"><ele></ele><time>2016-6-7T11:13:36Z</time></trkpt>
<trkpt lat="46.39868879740221" lon="6.165217051909487"><ele></ele><time>2016-6-7T11:13:39Z</time></trkpt>
<trkpt lat="46.39751090437871" lon="6.158671730449818"><ele></ele><time>2016-6-7T11:13:42Z</time></trkpt>
<trkpt lat="46.39589226800555" lon="6.152388567017777"><ele></ele><time>2016-6-7T11:13:45Z</time></trkpt>
<trkpt lat="46.39522697231766" lon="6.14707735297173"><ele></ele><time>2016-6-7T11:13:48Z</time></trkpt>
<trkpt lat="46.39504250202902" lon="6.143951707958277"><ele></ele><time>2016-6-7T11:13:51Z</time></trkpt>
<trkpt lat="46.39697713783246" lon="6.141020988951141"><ele></ele><time>2016-6-7T11:13:54Z</time></trkpt>
<trkpt lat="46.39940248504361" lon="6.139555442750364"><ele></ele><time>2016-6-7T11:13:57Z</time></trkpt>
<trkpt lat="46.40228751446889" lon="6.138593301237822"><ele></ele><time>2016-6-7T11:14:0Z</time></trkpt>
<trkpt lat="46.40619404631013" lon="6.138494425162535"><ele></ele><time>2016-6-7T11:14:3Z</time></trkpt>
<trkpt lat="46.40804208662484" lon="6.139357493852911"><ele></ele><time>2016-6-7T11:14:6Z</time></trkpt>
<trkpt lat="46.40989684884466" lon="6.139911988159701"><ele></ele><time>2016-6-7T11:14:9Z</time></trkpt>
<trkpt lat="46.41089122593566" lon="6.140619955788223"><ele></ele><time>2016-6-7T11:14:12Z</time></trkpt>
<trkpt lat="46.41251940288295" lon="6.14263138806624"><ele></ele><time>2016-6-7T11:14:15Z</time></trkpt>
<trkpt lat="46.41427340835685" lon="6.146433554140685"><ele></ele><time>2016-6-7T11:14:18Z</time></trkpt>
<trkpt lat="46.41639128134459" lon="6.150766797016425"><ele></ele><time>2016-6-7T11:14:21Z</time></trkpt>
<trkpt lat="46.41747707980869" lon="6.15573127498738"><ele></ele><time>2016-6-7T11:14:24Z</time></trkpt>
<trkpt lat="46.41740515289863" lon="6.159883593355184"><ele></ele><time>2016-6-7T11:14:27Z</time></trkpt>
<trkpt lat="46.41627970608061" lon="6.16373032322882"><ele></ele><time>2016-6-7T11:14:30Z</time></trkpt>
<trkpt lat="46.41569840173295" lon="6.167755463693815"><ele></ele><time>2016-6-7T11:14:33Z</time></trkpt>
<trkpt lat="46.41646202207918" lon="6.170884720037424"><ele></ele><time>2016-6-7T11:14:36Z</time></trkpt>
<trkpt lat="46.41863277396567" lon="6.173240857613187"><ele></ele><time>2016-6-7T11:14:39Z</time></trkpt>
<trkpt lat="46.42108163649228" lon="6.174061970489879"><ele></ele><time>2016-6-7T11:14:42Z</time></trkpt>
<trkpt lat="46.42324642778888" lon="6.173752891161389"><ele></ele><time>2016-6-7T11:14:45Z</time></trkpt>
<trkpt lat="46.42632843821184" lon="6.171195516439418"><ele></ele><time>2016-6-7T11:14:48Z</time></trkpt>
<trkpt lat="46.4275085126871" lon="6.168636434008075"><ele></ele><time>2016-6-7T11:14:51Z</time></trkpt>
<trkpt lat="46.42763810431827" lon="6.165651556121976"><ele></ele><time>2016-6-7T11:14:54Z</time></trkpt>
<trkpt lat="46.4264344467362" lon="6.162271649670998"><ele></ele><time>2016-6-7T11:14:57Z</time></trkpt>
<trkpt lat="46.42583218368986" lon="6.160118896676751"><ele></ele><time>2016-6-7T11:15:0Z</time></trkpt>
<trkpt lat="46.42389259957039" lon="6.156338901862735"><ele></ele><time>2016-6-7T11:15:3Z</time></trkpt>
<trkpt lat="46.42307829630702" lon="6.153104315654037"><ele></ele><time>2016-6-7T11:15:6Z</time></trkpt>
<trkpt lat="46.42301316784583" lon="6.150465888969345"><ele></ele><time>2016-6-7T11:15:9Z</time></trkpt>
<trkpt lat="46.42400494865632" lon="6.14810239317123"><ele></ele><time>2016-6-7T11:15:12Z</time></trkpt>
<trkpt lat="46.42511879866121" lon="6.147396983823937"><ele></ele><time>2016-6-7T11:15:15Z</time></trkpt>
<trkpt lat="46.42654821470338" lon="6.146532696234419"><ele></ele><time>2016-6-7T11:15:18Z</time></trkpt>
<trkpt lat="46.42774981705723" lon="6.143440819441405"><ele></ele><time>2016-6-7T11:15:21Z</time></trkpt>
<trkpt lat="46.42822623889964" lon="6.140227005400753"><ele></ele><time>2016-6-7T11:15:24Z</time></trkpt>
<trkpt lat="46.42787684825552" lon="6.13715952989595"><ele></ele><time>2016-6-7T11:15:27Z</time></trkpt>
<trkpt lat="46.42647237710894" lon="6.134424672333676"><ele></ele><time>2016-6-7T11:15:30Z</time></trkpt>
<trkpt lat="46.42529278984245" lon="6.132505853813902"><ele></ele><time>2016-6-7T11:15:33Z</time></trkpt>
<trkpt lat="46.42478106986335" lon="6.130661334046536"><ele></ele><time>2016-6-7T11:15:36Z</time></trkpt>
<trkpt lat="46.42455242653686" lon="6.128537374335967"><ele></ele><time>2016-6-7T11:15:39Z</time></trkpt>
<trkpt lat="46.42471339808412" lon="6.127421454752908"><ele></ele><time>2016-6-7T11:15:42Z</time></trkpt>
<trkpt lat="46.42540882002518" lon="6.126578856169282"><ele></ele><time>2016-6-7T11:15:45Z</time></trkpt>
<trkpt lat="46.42680994991921" lon="6.125730362486608"><ele></ele><time>2016-6-7T11:15:48Z</time></trkpt>
<trkpt lat="46.42846800173344" lon="6.125852848928536"><ele></ele><time>2016-6-7T11:15:51Z</time></trkpt>
<trkpt lat="46.42944225859043" lon="6.125846474751611"><ele></ele><time>2016-6-7T11:15:54Z</time></trkpt>
<trkpt lat="46.43112150761841" lon="6.125271804787575"><ele></ele><time>2016-6-7T11:15:57Z</time></trkpt>
<trkpt lat="46.43175894546306" lon="6.125535481468585"><ele></ele><time>2016-6-7T11:16:0Z</time></trkpt>
<trkpt lat="46.43238815228283" lon="6.126772240542917"><ele></ele><time>2016-6-7T11:16:3Z</time></trkpt>
<trkpt lat="46.43197765975816" lon="6.127838621004511"><ele></ele><time>2016-6-7T11:16:6Z</time></trkpt>
<trkpt lat="46.43149032615168" lon="6.128365735855739"><ele></ele><time>2016-6-7T11:16:9Z</time></trkpt>
<trkpt lat="46.43099098150364" lon="6.128488596763346"><ele></ele><time>2016-6-7T11:16:12Z</time></trkpt>
<trkpt lat="46.43088285582817" lon="6.12849359972757"><ele></ele><time>2016-6-7T11:16:15Z</time></trkpt>
<trkpt lat="46.4308501430322" lon="6.128511401080221"><ele></ele><time>2016-6-7T11:16:18Z</time></trkpt>
<trkpt lat="46.43078937123349" lon="6.128533057394662"><ele></ele><time>2016-6-7T11:16:21Z</time></trkpt>
<trkpt lat="46.43074189906518" lon="6.128538477806922"><ele></ele><time>2016-6-7T11:16:24Z</time></trkpt>
<trkpt lat="46.43068154490548" lon="6.128554537369162"><ele></ele><time>2016-6-7T11:16:27Z</time></trkpt>
<trkpt lat="46.43063750736737" lon="6.128563629530007"><ele></ele><time>2016-6-7T11:16:30Z</time></trkpt>
<trkpt lat="46.43059078342844" lon="6.128555653485401"><ele></ele><time>2016-6-7T11:16:33Z</time></trkpt>
<trkpt lat="46.43054686762027" lon="6.128564734671345"><ele></ele><time>2016-6-7T11:16:36Z</time></trkpt>
<trkpt lat="46.4305077753958" lon="6.128562662082684"><ele></ele><time>2016-6-7T11:16:39Z</time></trkpt>
<trkpt lat="46.43046873874921" lon="6.128560557897378"><ele></ele><time>2016-6-7T11:16:42Z</time></trkpt>
<trkpt lat="46.43044923155178" lon="6.128559506686779"><ele></ele><time>2016-6-7T11:16:45Z</time></trkpt>
</trkseg></trk></gpx>